Easter Island, Chile
Current Conditions -  °F | °C
As of 2:00 PM on Friday 19 Dec 2014 (Local Time) from SCIP Reporting Station
Broken Clouds Broken Clouds  
Wind Chill: 77°   Ceiling: 2000
Heat Index: 79°   Visibility: 6mi
Dew Point: 64°   Wind: 12mph
Humidity: 65%   Direction: 110°ESE
Pressure: 30.27"   Gusts: NA
Location:  27.12°S, 109.37°W
Report Text: SCIP 192000Z 11010KT 030V180 9999 BKN020 25/18 Q1025 NOSIG
Loading
Personal Weather Stations






























Interactive Weather Map New forecast layout! Learn more

10-Day Weather Forecast

Advertisements
Track Severe Weather on mobile